Time;durP1;ratioP1;P1;durP2;ratioP2;P2;SDS_P1;SDS_P2;PMS_P1;PMS_P2;Temp;Humidity;BMP_temperature;BMP_pressure;BME280_temperature;BME280_humidity;BME280_pressure;Samples;Min_cycle;Max_cycle;Signal;HPM_P1;HPM_P2
2023/03/01 00:01:04;;;;;;;7.18;7.07;;;4.30;99.90;;;;;;4223299;28;20087;-91
2023/03/01 00:03:24;;;;;;;7.07;6.97;;;4.30;99.90;;;;;;4219146;28;20039;-91
2023/03/01 00:05:45;;;;;;;9.00;8.80;;;4.40;99.90;;;;;;4224470;28;20066;-91
2023/03/01 00:08:05;;;;;;;9.10;9.00;;;4.40;99.90;;;;;;4214841;28;20100;-91
2023/03/01 00:10:26;;;;;;;7.68;7.50;;;4.40;99.90;;;;;;4220697;28;20072;-91
2023/03/01 00:12:47;;;;;;;8.07;7.93;;;4.40;99.90;;;;;;4222168;28;20310;-91
2023/03/01 00:15:07;;;;;;;9.27;8.90;;;4.40;99.90;;;;;;4227277;28;20255;-91
2023/03/01 00:17:28;;;;;;;8.27;8.18;;;4.40;99.90;;;;;;4225933;28;20129;-91
2023/03/01 00:19:48;;;;;;;7.53;7.43;;;4.40;99.90;;;;;;4230936;28;20357;-91
2023/03/01 00:22:10;;;;;;;9.02;8.90;;;4.30;99.90;;;;;;4220927;28;20082;-91
2023/03/01 00:24:30;;;;;;;8.77;8.68;;;4.30;99.90;;;;;;4217705;28;20071;-91
2023/03/01 00:26:55;;;;;;;9.50;9.30;;;4.30;99.90;;;;;;4234256;28;20389;-91
2023/03/01 00:29:14;;;;;;;9.15;8.95;;;4.30;99.90;;;;;;4214175;28;20051;-91
2023/03/01 00:31:35;;;;;;;8.77;8.68;;;4.30;99.90;;;;;;4217676;28;20090;-91
2023/03/01 00:33:58;;;;;;;9.27;8.98;;;4.30;99.90;;;;;;4218361;28;20333;-91
2023/03/01 00:36:18;;;;;;;8.67;8.47;;;4.40;99.90;;;;;;4223228;28;20048;-90
2023/03/01 00:38:45;;;;;;;9.18;9.07;;;4.30;99.90;;;;;;4214239;28;20442;-91
2023/03/01 00:41:07;;;;;;;9.15;9.05;;;4.30;99.90;;;;;;4219400;28;20090;-91
2023/03/01 00:43:27;;;;;;;8.50;8.40;;;4.30;99.90;;;;;;4219676;28;20139;-91
2023/03/01 00:45:47;;;;;;;9.13;8.93;;;4.30;99.90;;;;;;4223609;28;20059;-91
2023/03/01 00:48:07;;;;;;;8.88;8.77;;;4.20;99.90;;;;;;4223627;28;20050;-91
2023/03/01 00:50:27;;;;;;;8.05;7.95;;;4.20;99.90;;;;;;4217727;28;20047;-91
2023/03/01 00:52:51;;;;;;;8.25;8.02;;;4.20;99.90;;;;;;4218242;28;20397;-91
2023/03/01 00:55:11;;;;;;;7.32;7.15;;;4.10;99.90;;;;;;4231231;28;20386;-91
2023/03/01 00:57:32;;;;;;;7.25;7.15;;;4.10;99.90;;;;;;4216298;28;20248;-91
2023/03/01 00:59:54;;;;;;;7.55;7.45;;;4.20;99.90;;;;;;4212724;28;20289;-90
2023/03/01 01:02:15;;;;;;;6.95;6.85;;;4.10;99.90;;;;;;4219378;28;20043;-91
2023/03/01 01:04:35;;;;;;;7.05;6.95;;;4.10;99.90;;;;;;4222403;28;20047;-91
2023/03/01 01:06:56;;;;;;;7.03;6.93;;;4.10;99.90;;;;;;4227376;28;20230;-92
2023/03/01 01:09:17;;;;;;;6.25;6.15;;;4.10;99.90;;;;;;4218912;28;20123;-91
2023/03/01 01:11:37;;;;;;;6.43;6.35;;;4.10;99.90;;;;;;4219646;28;20051;-91
2023/03/01 01:13:58;;;;;;;7.20;7.20;;;4.10;99.90;;;;;;4228294;28;20054;-91
2023/03/01 01:16:20;;;;;;;6.40;6.40;;;4.00;99.90;;;;;;4214022;28;20089;-91
2023/03/01 01:18:41;;;;;;;6.55;6.55;;;4.10;99.90;;;;;;4212911;28;20090;-91
2023/03/01 01:21:13;;;;;;;6.22;6.15;;;4.10;99.90;;;;;;4222353;28;20047;-91
2023/03/01 01:23:33;;;;;;;6.47;6.47;;;4.10;99.90;;;;;;4223563;28;20111;-92
2023/03/01 01:25:53;;;;;;;6.10;6.10;;;4.00;99.90;;;;;;4218172;28;20112;-91
2023/03/01 01:28:13;;;;;;;5.95;5.95;;;4.10;99.90;;;;;;4223551;28;20270;-91
2023/03/01 01:30:33;;;;;;;6.45;6.45;;;4.00;99.90;;;;;;4220094;28;20043;-91
2023/03/01 01:32:54;;;;;;;6.68;6.68;;;4.00;99.90;;;;;;4222343;28;20039;-91
2023/03/01 01:35:14;;;;;;;6.78;6.78;;;4.00;99.90;;;;;;4216641;28;20111;-90
2023/03/01 01:37:35;;;;;;;7.47;7.38;;;4.10;99.90;;;;;;4218600;28;20047;-90
2023/03/01 01:39:55;;;;;;;7.60;7.57;;;4.10;99.90;;;;;;4216000;28;20048;-90
2023/03/01 01:42:18;;;;;;;7.15;7.15;;;4.10;99.90;;;;;;4214260;28;20050;-90
2023/03/01 01:44:37;;;;;;;6.55;6.47;;;4.10;99.90;;;;;;4214305;28;20075;-91
2023/03/01 01:47:07;;;;;;;7.03;7.03;;;4.10;99.90;;;;;;4218392;28;20139;-90
2023/03/01 01:49:36;;;;;;;6.57;6.57;;;4.20;99.90;;;;;;4211632;28;20040;-91
2023/03/01 01:52:20;;;;;;;7.35;7.25;;;4.10;99.90;;;;;;4219742;28;20105;-91
2023/03/01 01:55:02;;;;;;;6.18;6.13;;;4.20;99.90;;;;;;4218370;28;20085;-90
2023/03/01 01:57:34;;;;;;;7.05;6.95;;;4.20;99.90;;;;;;4223119;28;20369;-90
2023/03/01 01:59:59;;;;;;;7.05;7.05;;;4.20;99.90;;;;;;4214948;28;20075;-89
2023/03/01 02:02:19;;;;;;;6.20;6.20;;;4.20;99.90;;;;;;4230852;28;20116;-91
2023/03/01 02:04:40;;;;;;;7.00;6.93;;;4.30;99.90;;;;;;4232632;28;20113;-91
2023/03/01 02:07:22;;;;;;;6.38;6.38;;;4.30;99.90;;;;;;4220345;28;20048;-90
2023/03/01 02:09:52;;;;;;;7.05;7.00;;;4.30;99.90;;;;;;4217655;28;20051;-90
2023/03/01 02:12:16;;;;;;;7.25;7.15;;;4.20;99.90;;;;;;4232675;28;20234;-91
2023/03/01 02:14:36;;;;;;;8.20;8.10;;;4.20;99.90;;;;;;4231446;28;20231;-90
2023/03/01 02:16:58;;;;;;;6.97;6.97;;;4.20;99.90;;;;;;4220003;28;20047;-90
2023/03/01 02:19:48;;;;;;;7.97;7.88;;;4.20;99.90;;;;;;4214320;28;20098;-91
2023/03/01 02:22:38;;;;;;;7.50;7.43;;;4.20;99.90;;;;;;4226120;28;20057;-90
2023/03/01 02:25:19;;;;;;;5.88;5.88;;;4.20;99.90;;;;;;4228926;28;20238;-90
2023/03/01 02:28:05;;;;;;;7.88;7.78;;;4.20;99.90;;;;;;4224466;28;20089;-91
2023/03/01 02:30:26;;;;;;;7.18;7.07;;;4.30;99.90;;;;;;4219978;28;20046;-91
2023/03/01 02:32:47;;;;;;;7.60;7.50;;;4.30;99.90;;;;;;4222098;28;20101;-90
2023/03/01 02:35:13;;;;;;;8.00;7.90;;;4.30;99.90;;;;;;4220496;28;20050;-90
2023/03/01 02:37:35;;;;;;;7.97;7.72;;;4.30;99.90;;;;;;4225057;28;20115;-90
2023/03/01 02:40:02;;;;;;;6.95;6.95;;;4.40;99.90;;;;;;4226657;28;20389;-90
2023/03/01 02:42:30;;;;;;;7.65;7.55;;;4.40;99.90;;;;;;4225055;28;20082;-91
2023/03/01 02:44:50;;;;;;;7.30;7.30;;;4.40;99.90;;;;;;4216640;28;20071;-91
2023/03/01 02:47:11;;;;;;;7.03;6.95;;;4.40;99.90;;;;;;4214479;28;20374;-90
2023/03/01 02:49:35;;;;;;;6.80;6.80;;;4.40;99.90;;;;;;4223243;28;20115;-90
2023/03/01 02:52:04;;;;;;;7.05;7.05;;;4.40;99.90;;;;;;4216579;28;20047;-90
2023/03/01 02:54:36;;;;;;;6.80;6.80;;;4.40;99.90;;;;;;4218702;28;20039;-90
2023/03/01 02:56:57;;;;;;;6.63;6.63;;;4.40;99.90;;;;;;4226335;28;20093;-90
2023/03/01 02:59:22;;;;;;;7.53;7.43;;;4.40;99.90;;;;;;4223846;28;20291;-91
2023/03/01 03:01:46;;;;;;;6.60;6.50;;;4.30;99.90;;;;;;4215560;28;20043;-90
2023/03/01 03:04:17;;;;;;;6.53;6.53;;;4.30;99.90;;;;;;4218189;28;20047;-90
2023/03/01 03:06:38;;;;;;;7.88;7.78;;;4.40;99.90;;;;;;4216981;28;20091;-90
2023/03/01 03:08:59;;;;;;;6.95;6.95;;;4.40;99.90;;;;;;4231032;28;20039;-90
2023/03/01 03:11:20;;;;;;;7.80;7.70;;;4.40;99.90;;;;;;4228506;28;20323;-91
2023/03/01 03:13:47;;;;;;;7.35;7.25;;;4.40;99.90;;;;;;4226733;28;20093;-92
2023/03/01 03:16:08;;;;;;;6.15;6.05;;;4.40;99.90;;;;;;4219754;28;20107;-91
2023/03/01 03:18:29;;;;;;;6.80;6.70;;;4.40;99.90;;;;;;4215718;28;20043;-91
2023/03/01 03:20:52;;;;;;;6.90;6.90;;;4.40;99.90;;;;;;4221873;28;20051;-91
2023/03/01 03:23:13;;;;;;;6.57;6.53;;;4.30;99.90;;;;;;4219223;28;20381;-91
2023/03/01 03:25:37;;;;;;;6.15;6.15;;;4.40;99.90;;;;;;4221870;28;20043;-91
2023/03/01 03:27:57;;;;;;;7.90;7.80;;;4.40;99.90;;;;;;4216836;28;20039;-91
2023/03/01 03:30:19;;;;;;;5.97;5.97;;;4.40;99.90;;;;;;4226276;28;20373;-91
2023/03/01 03:32:41;;;;;;;7.47;7.38;;;4.40;99.90;;;;;;4226177;28;20047;-91
2023/03/01 03:35:08;;;;;;;7.45;7.35;;;4.30;99.90;;;;;;4224774;28;20077;-90
2023/03/01 03:40:15;;;;;;;7.45;7.35;;;4.30;99.90;;;;;;4229802;28;20073;-90
2023/03/01 03:42:36;;;;;;;7.80;7.70;;;4.30;99.90;;;;;;4235171;28;20047;-91
2023/03/01 03:44:56;;;;;;;7.95;7.85;;;4.30;99.90;;;;;;4222375;28;20427;-91
2023/03/01 03:47:19;;;;;;;9.35;9.25;;;4.20;99.90;;;;;;4215206;28;20082;-91
2023/03/01 03:49:39;;;;;;;7.68;7.57;;;4.20;99.90;;;;;;4215892;28;20246;-90
2023/03/01 03:52:04;;;;;;;7.35;7.25;;;4.10;99.90;;;;;;4214210;28;20298;-91
2023/03/01 03:54:25;;;;;;;8.48;8.38;;;4.10;99.90;;;;;;4218111;28;20036;-91
2023/03/01 03:56:45;;;;;;;7.05;6.95;;;4.10;99.90;;;;;;4225773;28;20047;-91
2023/03/01 03:59:05;;;;;;;7.43;7.32;;;4.10;99.90;;;;;;4219016;28;20247;-91
2023/03/01 04:01:26;;;;;;;8.18;8.07;;;4.20;99.90;;;;;;4228124;28;20404;-91
2023/03/01 04:03:46;;;;;;;9.05;8.95;;;4.10;99.90;;;;;;4218005;28;20074;-90
2023/03/01 04:06:31;;;;;;;8.45;8.35;;;4.20;99.90;;;;;;4224062;28;20103;-91
2023/03/01 04:08:58;;;;;;;7.65;7.55;;;4.20;99.90;;;;;;4156252;28;20371;-91
2023/03/01 04:11:28;;;;;;;9.35;9.15;;;4.30;99.90;;;;;;4150522;28;20041;-91
2023/03/01 04:13:48;;;;;;;6.55;6.47;;;4.30;99.90;;;;;;4146992;28;20041;-91
2023/03/01 04:16:35;;;;;;;7.32;7.22;;;4.40;99.90;;;;;;4138933;28;20330;-91
2023/03/01 04:18:55;;;;;;;7.13;7.03;;;4.40;99.90;;;;;;4104347;29;20049;-91
2023/03/01 04:21:42;;;;;;;7.38;7.28;;;4.40;99.90;;;;;;4106412;29;20076;-91
2023/03/01 04:24:03;;;;;;;7.95;7.85;;;4.40;99.90;;;;;;4053557;29;20161;-91
2023/03/01 04:26:23;;;;;;;7.80;7.70;;;4.50;99.90;;;;;;4056814;29;20348;-91
2023/03/01 04:28:45;;;;;;;7.53;7.43;;;4.40;99.90;;;;;;4060703;29;20520;-91
2023/03/01 04:31:18;;;;;;;7.95;7.85;;;4.40;99.90;;;;;;4060633;29;20096;-91
2023/03/01 04:33:46;;;;;;;5.75;5.65;;;4.30;99.90;;;;;;4051103;29;20088;-91
2023/03/01 04:36:08;;;;;;;6.88;6.78;;;4.40;99.90;;;;;;4060891;29;20060;-91
2023/03/01 04:38:28;;;;;;;7.35;7.03;;;4.40;99.90;;;;;;4048095;29;20085;-91
2023/03/01 04:40:48;;;;;;;8.60;8.20;;;4.40;99.90;;;;;;4047611;29;20150;-91
2023/03/01 04:43:09;;;;;;;7.30;7.20;;;4.40;99.90;;;;;;4057662;29;20055;-91
2023/03/01 04:45:31;;;;;;;8.20;8.05;;;4.40;99.90;;;;;;4079268;28;20264;-90
2023/03/01 04:47:52;;;;;;;6.95;6.85;;;4.40;99.90;;;;;;4113463;28;20066;-91
2023/03/01 04:50:15;;;;;;;6.97;6.88;;;4.40;99.90;;;;;;4109372;28;20062;-91
2023/03/01 04:52:35;;;;;;;8.00;7.88;;;4.40;99.90;;;;;;4121976;28;20380;-91
2023/03/01 04:54:55;;;;;;;8.00;7.90;;;4.40;99.90;;;;;;4124264;28;20220;-91
2023/03/01 04:57:19;;;;;;;8.52;8.32;;;4.40;99.90;;;;;;4158233;28;20056;-91
2023/03/01 04:59:39;;;;;;;8.20;8.10;;;4.40;99.90;;;;;;4165688;28;20084;-91
2023/03/01 05:02:00;;;;;;;6.78;6.68;;;4.40;99.90;;;;;;4217757;28;20239;-91
2023/03/01 05:04:20;;;;;;;7.93;7.82;;;4.50;99.90;;;;;;4215367;28;20082;-91
2023/03/01 05:06:44;;;;;;;7.13;7.03;;;4.50;99.90;;;;;;4220961;28;20081;-91
2023/03/01 05:09:04;;;;;;;9.02;8.82;;;4.40;99.90;;;;;;4224960;28;20311;-91
2023/03/01 05:11:27;;;;;;;7.43;7.32;;;4.30;99.90;;;;;;4220845;28;20070;-91
2023/03/01 05:13:49;;;;;;;7.30;7.20;;;4.30;99.90;;;;;;4229702;28;20104;-91
2023/03/01 05:16:10;;;;;;;7.80;7.60;;;4.20;99.90;;;;;;4218844;28;20043;-91
2023/03/01 05:18:32;;;;;;;7.70;7.60;;;4.20;99.90;;;;;;4224077;28;20039;-91
2023/03/01 05:20:56;;;;;;;6.95;6.85;;;4.20;99.90;;;;;;4220793;28;20098;-91
2023/03/01 05:23:16;;;;;;;6.68;6.57;;;4.30;99.90;;;;;;4235441;28;20057;-90
2023/03/01 05:25:39;;;;;;;7.63;7.53;;;4.30;99.90;;;;;;4221715;28;20089;-91
2023/03/01 05:28:04;;;;;;;6.63;6.53;;;4.40;99.90;;;;;;4220423;28;20254;-91
2023/03/01 05:30:24;;;;;;;7.15;7.05;;;4.50;99.90;;;;;;4217406;28;20043;-91
2023/03/01 05:32:48;;;;;;;9.10;8.75;;;4.50;99.90;;;;;;4215563;28;20051;-91
2023/03/01 05:35:08;;;;;;;7.47;7.38;;;4.50;99.90;;;;;;4221428;28;20115;-91
2023/03/01 05:37:29;;;;;;;7.20;7.10;;;4.30;99.90;;;;;;4216919;28;20051;-91
2023/03/01 05:39:50;;;;;;;8.70;8.52;;;4.10;99.90;;;;;;4217866;28;20042;-91
2023/03/01 05:42:11;;;;;;;7.82;7.72;;;4.10;99.90;;;;;;4219334;28;20082;-91
2023/03/01 05:44:32;;;;;;;9.15;9.05;;;4.00;99.90;;;;;;4217204;28;20150;-90
2023/03/01 05:46:54;;;;;;;8.90;8.80;;;3.90;99.90;;;;;;4213167;28;20055;-90
2023/03/01 05:49:18;;;;;;;7.68;7.57;;;3.90;99.90;;;;;;4213419;28;20111;-90
2023/03/01 05:51:41;;;;;;;9.20;9.10;;;3.70;99.90;;;;;;4224360;28;20051;-91
2023/03/01 05:54:01;;;;;;;10.05;9.95;;;3.60;99.90;;;;;;4229742;28;20070;-90
2023/03/01 05:56:23;;;;;;;9.25;9.15;;;3.60;99.90;;;;;;4217906;28;20086;-91
2023/03/01 05:58:43;;;;;;;8.55;8.45;;;3.50;99.90;;;;;;4229069;28;20100;-91
2023/03/01 06:01:04;;;;;;;8.77;8.68;;;3.50;99.90;;;;;;4221793;28;20051;-91
2023/03/01 06:03:24;;;;;;;8.00;7.90;;;3.50;99.90;;;;;;4210463;28;20039;-90
2023/03/01 06:05:45;;;;;;;7.55;7.45;;;3.70;99.90;;;;;;4219279;28;20086;-91
2023/03/01 06:08:05;;;;;;;7.63;7.53;;;3.70;99.90;;;;;;4217502;28;20123;-90
2023/03/01 06:10:25;;;;;;;6.30;6.30;;;3.70;99.90;;;;;;4218348;28;20247;-91
2023/03/01 06:12:46;;;;;;;6.95;6.95;;;3.80;99.90;;;;;;4220350;28;20047;-91
2023/03/01 06:15:09;;;;;;;8.60;8.50;;;3.80;99.90;;;;;;4214711;28;20051;-92
2023/03/01 06:17:31;;;;;;;8.82;8.73;;;3.70;99.90;;;;;;4227178;28;20078;-91
2023/03/01 06:19:51;;;;;;;6.55;6.55;;;3.60;99.90;;;;;;4219292;28;20059;-91
2023/03/01 06:22:11;;;;;;;6.25;6.15;;;3.70;99.90;;;;;;4216691;28;20051;-92
2023/03/01 06:24:31;;;;;;;7.78;7.68;;;3.80;99.90;;;;;;4214931;28;20047;-90
2023/03/01 06:26:53;;;;;;;8.02;7.78;;;3.70;99.90;;;;;;4219102;28;20110;-90
2023/03/01 06:29:14;;;;;;;6.93;6.82;;;3.80;99.90;;;;;;4231201;28;20042;-90
2023/03/01 06:31:35;;;;;;;7.88;7.78;;;3.80;99.90;;;;;;4233407;28;20047;-90
2023/03/01 06:33:55;;;;;;;8.00;7.63;;;3.80;99.90;;;;;;4220902;28;20365;-90
2023/03/01 06:36:18;;;;;;;8.07;7.97;;;3.80;99.90;;;;;;4224298;28;20039;-90
2023/03/01 06:38:38;;;;;;;6.18;6.18;;;3.80;99.90;;;;;;4232123;28;20052;-90
2023/03/01 06:40:59;;;;;;;6.30;6.30;;;3.70;99.90;;;;;;4237548;28;20059;-90
2023/03/01 06:43:19;;;;;;;7.45;7.43;;;3.70;99.90;;;;;;4221182;28;20087;-90
2023/03/01 06:45:39;;;;;;;6.70;6.63;;;3.70;99.90;;;;;;4215862;28;20079;-89
2023/03/01 06:48:04;;;;;;;8.48;8.38;;;3.70;99.90;;;;;;4213484;28;20103;-89
2023/03/01 06:50:24;;;;;;;10.77;10.48;;;3.70;99.90;;;;;;4214091;28;20055;-87
2023/03/01 06:52:45;;;;;;;8.52;8.38;;;3.70;99.90;;;;;;4214392;28;20426;-88
2023/03/01 06:55:06;;;;;;;7.07;6.97;;;3.50;99.90;;;;;;4227171;28;20051;-87
2023/03/01 06:57:29;;;;;;;8.82;8.50;;;3.50;99.90;;;;;;4228141;28;20048;-87
2023/03/01 06:59:49;;;;;;;8.55;8.45;;;3.50;99.90;;;;;;4223228;28;20047;-88
2023/03/01 07:02:15;;;;;;;8.40;8.30;;;3.50;99.90;;;;;;4228729;28;20048;-88
2023/03/01 07:04:35;;;;;;;8.80;8.50;;;3.50;99.90;;;;;;4217335;28;20081;-88
2023/03/01 07:06:55;;;;;;;7.70;7.60;;;3.50;99.90;;;;;;4228947;28;20287;-88
2023/03/01 07:09:19;;;;;;;7.72;7.63;;;3.50;99.90;;;;;;4218722;28;20436;-88
2023/03/01 07:11:40;;;;;;;8.15;8.05;;;3.40;99.90;;;;;;4219478;28;20079;-88
2023/03/01 07:14:00;;;;;;;7.32;7.22;;;3.40;99.90;;;;;;4219802;28;20066;-88
2023/03/01 07:16:20;;;;;;;8.10;8.00;;;3.40;99.90;;;;;;4223917;28;20070;-87
2023/03/01 07:18:41;;;;;;;7.05;6.95;;;3.40;99.90;;;;;;4229175;28;20043;-88
2023/03/01 07:21:06;;;;;;;8.27;8.18;;;3.50;99.90;;;;;;4231563;28;20064;-88
2023/03/01 07:23:25;;;;;;;7.80;7.70;;;3.50;99.90;;;;;;4228691;28;20113;-88
2023/03/01 07:25:54;;;;;;;8.27;8.18;;;3.50;99.90;;;;;;4229491;28;20437;-88
2023/03/01 07:28:14;;;;;;;8.18;8.07;;;3.50;99.90;;;;;;4229883;28;20054;-88
2023/03/01 07:30:33;;;;;;;7.00;6.90;;;3.50;99.90;;;;;;4213821;28;20373;-88
2023/03/01 07:32:55;;;;;;;7.35;7.25;;;3.40;99.90;;;;;;4221099;28;20074;-88
2023/03/01 07:35:15;;;;;;;7.25;7.20;;;3.40;99.90;;;;;;4218458;28;20051;-88
2023/03/01 07:37:37;;;;;;;4.88;4.88;;;3.50;99.90;;;;;;4224001;28;20066;-88
2023/03/01 07:39:57;;;;;;;6.80;6.80;;;3.50;99.90;;;;;;4221211;28;20051;-88
2023/03/01 07:42:17;;;;;;;7.20;6.97;;;3.50;99.90;;;;;;4214034;28;20228;-88
2023/03/01 07:44:37;;;;;;;6.85;6.75;;;3.50;99.90;;;;;;4213841;28;20055;-88
2023/03/01 07:46:57;;;;;;;7.00;6.90;;;3.50;99.90;;;;;;4232886;28;20054;-88
2023/03/01 07:49:17;;;;;;;7.28;7.18;;;3.50;99.90;;;;;;4233320;28;20231;-88
2023/03/01 07:51:37;;;;;;;8.73;8.63;;;3.50;99.90;;;;;;4231382;28;20054;-88
2023/03/01 07:53:57;;;;;;;7.07;6.97;;;3.50;99.90;;;;;;4226885;28;20035;-87
2023/03/01 07:56:19;;;;;;;8.43;8.32;;;3.50;99.90;;;;;;4213597;28;20273;-88
2023/03/01 07:58:41;;;;;;;6.90;6.80;;;3.60;99.90;;;;;;4224139;28;20314;-88
2023/03/01 08:01:03;;;;;;;10.30;10.10;;;3.60;99.90;;;;;;4231730;28;20062;-88
2023/03/01 08:03:24;;;;;;;11.75;11.45;;;3.60;99.90;;;;;;4218058;28;20277;-87
2023/03/01 08:05:44;;;;;;;8.93;8.82;;;3.60;99.90;;;;;;4230815;28;20106;-88
2023/03/01 08:08:04;;;;;;;13.77;13.18;;;3.60;99.90;;;;;;4220585;28;20051;-88
2023/03/01 08:10:24;;;;;;;10.93;10.52;;;3.70;99.90;;;;;;4219059;28;20074;-88
2023/03/01 08:12:45;;;;;;;17.08;15.85;;;3.60;99.90;;;;;;4218139;28;20046;-88
2023/03/01 08:15:05;;;;;;;11.50;11.00;;;3.60;99.90;;;;;;4216949;28;20047;-88
2023/03/01 08:17:25;;;;;;;14.63;13.75;;;3.60;99.90;;;;;;4217353;28;20112;-88
2023/03/01 08:19:45;;;;;;;10.85;10.68;;;3.60;99.90;;;;;;4219210;28;20263;-87
2023/03/01 08:22:06;;;;;;;9.25;9.15;;;3.60;99.90;;;;;;4214717;28;20115;-88
2023/03/01 08:24:26;;;;;;;9.80;9.70;;;3.60;99.90;;;;;;4220003;28;20071;-88
2023/03/01 08:26:47;;;;;;;9.52;9.30;;;3.40;99.90;;;;;;4228106;28;20235;-87
2023/03/01 08:29:06;;;;;;;9.40;9.30;;;3.50;99.90;;;;;;4227669;28;20050;-88
2023/03/01 08:31:31;;;;;;;9.88;9.68;;;3.50;99.90;;;;;;4232711;28;20264;-88
2023/03/01 08:33:55;;;;;;;13.55;12.57;;;3.50;99.90;;;;;;4211859;28;20385;-88
2023/03/01 08:36:16;;;;;;;;;;;3.60;99.90;;;;;;4235293;28;20426;-88
2023/03/01 08:38:36;;;;;;;13.32;12.60;;;3.60;99.90;;;;;;4217137;28;20229;-88
2023/03/01 08:41:00;;;;;;;10.68;10.38;;;3.70;99.90;;;;;;4210948;28;20086;-88
2023/03/01 08:43:19;;;;;;;10.38;10.07;;;3.70;99.90;;;;;;4229716;28;20109;-87
2023/03/01 08:45:41;;;;;;;11.15;10.95;;;3.70;99.90;;;;;;4220031;28;20121;-88
2023/03/01 08:48:01;;;;;;;13.93;13.20;;;3.70;99.90;;;;;;4219311;28;20097;-87
2023/03/01 08:50:22;;;;;;;13.82;12.98;;;3.80;99.90;;;;;;4211785;28;20074;-87
2023/03/01 08:52:43;;;;;;;12.57;11.98;;;3.80;99.90;;;;;;4217688;28;20047;-88
2023/03/01 08:55:03;;;;;;;9.10;9.00;;;3.90;99.90;;;;;;4214364;28;20864;-87
2023/03/01 08:57:23;;;;;;;7.57;7.47;;;3.90;99.90;;;;;;4225994;28;20406;-88
2023/03/01 08:59:42;;;;;;;7.68;7.57;;;3.90;99.90;;;;;;4221104;28;20085;-88
2023/03/01 09:02:10;;;;;;;7.45;7.22;;;4.00;99.90;;;;;;4219697;28;20389;-88
2023/03/01 09:04:30;;;;;;;6.80;6.70;;;4.00;99.90;;;;;;4218115;28;20047;-87
2023/03/01 09:06:51;;;;;;;8.60;8.50;;;4.00;99.90;;;;;;4220656;28;20138;-88
2023/03/01 09:09:16;;;;;;;6.93;6.82;;;4.00;99.90;;;;;;4215401;28;20051;-87
2023/03/01 09:11:38;;;;;;;8.27;8.07;;;4.00;99.90;;;;;;4217911;28;20082;-88
2023/03/01 09:13:58;;;;;;;9.52;9.35;;;4.10;99.90;;;;;;4222906;28;20087;-87
2023/03/01 09:16:20;;;;;;;6.15;6.05;;;4.10;99.90;;;;;;4221979;28;20055;-88
2023/03/01 09:18:40;;;;;;;7.40;7.30;;;4.20;99.90;;;;;;4222495;28;20047;-88
2023/03/01 09:21:06;;;;;;;6.40;6.40;;;4.20;99.90;;;;;;4227285;28;20086;-88
2023/03/01 09:23:26;;;;;;;6.25;6.25;;;4.30;99.90;;;;;;4222534;28;20071;-88
2023/03/01 09:25:47;;;;;;;8.05;7.95;;;4.30;99.90;;;;;;4230481;28;20079;-88
2023/03/01 09:28:07;;;;;;;8.18;8.07;;;4.30;99.90;;;;;;4217867;28;20038;-87
2023/03/01 09:30:27;;;;;;;7.22;7.13;;;4.40;99.90;;;;;;4224542;28;20107;-88
2023/03/01 09:32:48;;;;;;;7.22;7.13;;;4.30;99.90;;;;;;4216229;28;20087;-88
2023/03/01 09:35:08;;;;;;;5.10;5.10;;;4.40;99.90;;;;;;4217988;28;20071;-87
2023/03/01 09:37:34;;;;;;;6.22;6.22;;;4.40;99.90;;;;;;4218233;28;20055;-87
2023/03/01 09:39:54;;;;;;;6.20;6.05;;;4.30;99.90;;;;;;4212965;28;20116;-88
2023/03/01 09:42:16;;;;;;;5.47;5.47;;;4.30;99.90;;;;;;4216824;28;20401;-88
2023/03/01 09:44:51;;;;;;;6.65;6.55;;;4.30;99.90;;;;;;4237327;28;20292;-88
2023/03/01 09:47:24;;;;;;;7.20;7.10;;;4.20;99.90;;;;;;4224138;28;20100;-88
2023/03/01 09:49:58;;;;;;;5.75;5.75;;;4.10;99.90;;;;;;4217085;28;20043;-87
2023/03/01 09:52:42;;;;;;;7.63;7.43;;;4.00;99.90;;;;;;4212240;28;20075;-88
2023/03/01 09:55:28;;;;;;;8.27;8.07;;;3.80;99.90;;;;;;4215968;28;20119;-88
2023/03/01 09:57:54;;;;;;;7.57;7.47;;;3.80;99.90;;;;;;4216371;28;20408;-88
2023/03/01 10:00:14;;;;;;;10.88;10.68;;;3.60;99.90;;;;;;4230464;28;20046;-87
2023/03/01 10:02:46;;;;;;;7.15;7.15;;;3.40;99.90;;;;;;4228606;28;20047;-87
2023/03/01 10:05:14;;;;;;;9.80;9.70;;;3.30;99.90;;;;;;4231103;28;20043;-88
2023/03/01 10:08:05;;;;;;;7.82;7.72;;;3.40;99.90;;;;;;4229041;28;20051;-88
2023/03/01 10:10:42;;;;;;;7.07;6.97;;;3.30;99.90;;;;;;4221970;28;20051;-87
2023/03/01 10:13:29;;;;;;;6.70;6.63;;;3.10;99.90;;;;;;4220978;28;20239;-88
2023/03/01 10:16:22;;;;;;;7.63;7.50;;;3.10;99.90;;;;;;4132484;28;20076;-88
2023/03/01 10:18:45;;;;;;;7.25;7.15;;;3.10;99.90;;;;;;4112153;28;20197;-87
2023/03/01 10:21:17;;;;;;;8.07;7.97;;;2.90;99.90;;;;;;4131496;28;20093;-87
2023/03/01 10:23:37;;;;;;;12.05;11.70;;;2.80;99.90;;;;;;4120778;28;20143;-88
2023/03/01 10:26:29;;;;;;;10.05;9.75;;;2.80;99.90;;;;;;4130439;28;20401;-87
2023/03/01 10:29:10;;;;;;;8.82;8.63;;;2.80;99.90;;;;;;4130697;28;20045;-87
2023/03/01 10:31:42;;;;;;;7.93;7.82;;;3.00;99.90;;;;;;4129049;28;20499;-88
2023/03/01 10:34:09;;;;;;;8.65;8.55;;;2.80;99.90;;;;;;4134561;28;20301;-87
2023/03/01 10:36:33;;;;;;;9.80;9.70;;;2.90;99.90;;;;;;4130747;28;20050;-87
2023/03/01 10:38:54;;;;;;;;;;;2.90;99.90;;;;;;4134088;28;20159;-87
2023/03/01 10:41:15;;;;;;;7.68;7.55;;;3.00;99.90;;;;;;4131609;28;19978;-87
2023/03/01 10:43:54;;;;;;;7.22;7.22;;;2.90;99.90;;;;;;4129100;28;20049;-87
2023/03/01 10:46:34;;;;;;;6.82;6.82;;;2.70;99.90;;;;;;4124655;28;20053;-87
2023/03/01 10:49:17;;;;;;;5.90;5.90;;;2.70;99.90;;;;;;4138611;28;20053;-87
2023/03/01 10:51:40;;;;;;;6.22;6.03;;;2.80;99.90;;;;;;4136013;28;20053;-87
2023/03/01 10:54:02;;;;;;;6.60;6.57;;;2.70;99.90;;;;;;4215422;28;20067;-87
2023/03/01 10:56:23;;;;;;;4.72;4.72;;;2.70;99.90;;;;;;4232936;28;20111;-87
2023/03/01 10:58:58;;;;;;;6.25;6.25;;;2.40;99.90;;;;;;4234809;28;20268;-87
2023/03/01 11:01:18;;;;;;;6.25;6.25;;;2.30;99.90;;;;;;4234559;28;20145;-87
2023/03/01 11:03:39;;;;;;;7.60;7.50;;;2.10;99.90;;;;;;4224620;28;20077;-87
2023/03/01 11:06:03;;;;;;;6.97;6.97;;;2.30;99.90;;;;;;4228074;28;20050;-87
2023/03/01 11:08:44;;;;;;;9.30;9.20;;;2.20;99.90;;;;;;4230380;28;20086;-88
2023/03/01 11:11:21;;;;;;;14.18;13.52;;;2.30;99.90;;;;;;4224080;28;20043;-87
2023/03/01 11:14:06;;;;;;;11.63;11.43;;;2.30;99.90;;;;;;4217238;28;20051;-87
2023/03/01 11:16:57;;;;;;;13.85;13.43;;;2.40;99.90;;;;;;4233150;28;20077;-87
2023/03/01 11:19:20;;;;;;;9.43;9.23;;;2.30;99.90;;;;;;4233998;28;20085;-87
2023/03/01 11:22:03;;;;;;;;;;;2.20;99.90;;;;;;4233858;28;20051;-87
2023/03/01 11:24:43;;;;;;;7.70;7.60;;;2.00;99.90;;;;;;4212684;28;19992;-87
2023/03/01 11:27:22;;;;;;;13.35;12.75;;;1.80;99.90;;;;;;4225478;28;20114;-88
2023/03/01 11:29:46;;;;;;;13.02;12.75;;;1.60;99.90;;;;;;4216411;28;20088;-88
2023/03/01 11:33:07;;;;;;;16.60;16.15;;;1.50;99.90;;;;;;4232033;28;20141;-88
2023/03/01 11:35:33;;;;;;;19.08;18.67;;;1.40;99.90;;;;;;4112470;28;20113;-87
2023/03/01 11:38:01;;;;;;;18.63;18.33;;;1.30;99.90;;;;;;4120326;28;20065;-87
2023/03/01 11:40:30;;;;;;;28.23;27.33;;;1.20;99.90;;;;;;4115524;28;20046;-87
2023/03/01 11:43:17;;;;;;;27.60;26.83;;;1.20;99.90;;;;;;4132959;28;20113;-87
2023/03/01 11:45:50;;;;;;;18.55;18.08;;;1.10;99.90;;;;;;4119338;28;20062;-87
2023/03/01 11:49:14;;;;;;;16.15;15.75;;;1.10;99.90;;;;;;4132713;28;20326;-87
2023/03/01 11:51:47;;;;;;;16.73;16.13;;;1.10;99.90;;;;;;4096802;28;20355;-87
2023/03/01 11:54:14;;;;;;;12.07;11.87;;;1.10;99.90;;;;;;4118349;28;20082;-87
2023/03/01 11:56:47;;;;;;;12.35;12.13;;;1.10;99.90;;;;;;4132873;28;20320;-87
2023/03/01 11:59:17;;;;;;;14.00;13.48;;;1.00;99.90;;;;;;4135747;28;20100;-87
2023/03/01 12:01:59;;;;;;;13.18;12.77;;;1.10;99.90;;;;;;4133117;28;20432;-87
2023/03/01 12:04:51;;;;;;;13.65;13.25;;;1.20;99.90;;;;;;4134991;28;20081;-86
2023/03/01 12:07:21;;;;;;;16.67;15.77;;;1.00;99.90;;;;;;4134143;28;20061;-87
2023/03/01 12:10:12;;;;;;;22.02;20.42;;;1.10;99.90;;;;;;4132980;28;20041;-87
2023/03/01 12:12:39;;;;;;;25.20;23.08;;;1.10;99.90;;;;;;4206051;28;20043;-87
2023/03/01 12:15:31;;;;;;;19.45;18.08;;;1.20;99.90;;;;;;4223672;28;20047;-87
2023/03/01 12:18:09;;;;;;;18.42;17.20;;;1.10;99.90;;;;;;4177396;28;20055;-87
2023/03/01 12:20:40;;;;;;;17.10;16.27;;;1.10;99.90;;;;;;4214018;28;20051;-88
2023/03/01 12:23:27;;;;;;;27.80;25.50;;;1.20;99.90;;;;;;4217129;28;20264;-88
2023/03/01 12:26:16;;;;;;;23.00;21.25;;;1.20;99.90;;;;;;4220397;28;20042;-88
2023/03/01 12:29:20;;;;;;;21.05;19.75;;;1.30;99.90;;;;;;4215087;28;20086;-88
2023/03/01 12:32:02;;;;;;;19.30;18.23;;;1.10;99.90;;;;;;4223652;28;20047;-88
2023/03/01 12:34:37;;;;;;;18.10;17.10;;;1.00;99.90;;;;;;4222391;28;20086;-88
2023/03/01 12:37:33;;;;;;;14.02;13.43;;;1.00;99.90;;;;;;4219403;28;20047;-89
2023/03/01 12:40:29;;;;;;;18.25;17.27;;;0.90;99.90;;;;;;4214031;28;20270;-90
2023/03/01 12:42:57;;;;;;;20.73;19.70;;;0.90;99.90;;;;;;4217085;28;20043;-89
2023/03/01 12:46:07;;;;;;;19.52;18.13;;;0.80;99.90;;;;;;4210004;28;20090;-89
2023/03/01 12:48:42;;;;;;;17.23;16.48;;;0.70;99.90;;;;;;4144477;28;20104;-89
2023/03/01 12:51:10;;;;;;;18.85;17.73;;;0.70;99.90;;;;;;4138606;28;20081;-88